Florida Logo

Fort Lauderdale, FL Condo Real Estate Listings

1697 Total Real Estate Listings * Click on table heading to sort
Date Posted Property Type Style Address Price Living Area Lot Size Price/Sq Ft.
2017-03-30 Condo Condo 5+ Stories 2029 Ocean Blvd Fort Lauderdale, FL 33305 $369,900 1,100 sq. ft. $336
2017-03-30 Condo Condo 5+ Stories 1 Las Olas Cir Fort Lauderdale, FL 33316 $439,000 1,350 sq. ft. $325
2017-03-30 Condo Condo 5+ Stories 2200 Ocean Blvd Fort Lauderdale, FL 33305 $3,008,900 2,787 sq. ft. $1,080
2017-03-30 Condo Condo 5+ Stories 2200 Ocean Blvd Fort Lauderdale, FL 33305 $4,256,900 3,500 sq. ft. $1,216
2017-03-30 Condo Condo 5+ Stories 2200 Ocean Blvd Fort Lauderdale, FL 33305 $2,877,900 2,792 sq. ft. $1,031
2017-03-30 Condo Condo 5+ Stories 2200 Ocean Blvd Fort Lauderdale, FL 33305 $3,207,900 3,365 sq. ft. $953
2017-03-30 Condo Condo 1-4 Stories 5200 24th Ter Fort Lauderdale, FL 33308 $149,000 650 sq. ft. $229
2017-03-30 Condo Condo 5+ Stories 3000 Riomar St Fort Lauderdale, FL 33304 $189,900 640 sq. ft. $297
2017-03-29 Condo Townhouse Fee Simple 825 2nd Street Fort Lauderdale, FL 33301 $439,999 1,324 sq. ft. $332
2017-03-29 Condo Condo 5+ Stories 2881 33rd Ct Fort Lauderdale, FL 33306 $189,000 750 sq. ft. $252
2017-03-29 Condo Condo 5+ Stories 3200 Port Royale Dr N Fort Lauderdale, FL 33308 $99,900 1,290 sq. ft. $77
2017-03-29 Condo Condo 5+ Stories 3051 48th St Fort Lauderdale, FL 33308 $315,000 1,450 sq. ft. $217
2017-03-29 Condo Co-Op 5+ Stories 711 Birch Rd Fort Lauderdale, FL 33304 $350,000 1,200 sq. ft. $292
2017-03-29 Condo Townhouse Condo 620 Tennis Club Dr Fort Lauderdale, FL 33311 $130,000 1,168 sq. ft. $111
2017-03-29 Condo Condo 5+ Stories 511 5th Ave Fort Lauderdale, FL 33301 $380,000 1,379 sq. ft. $276
2017-03-28 Condo Condo 5+ Stories 2501 Ocean Boulevard Fort Lauderdale, FL 33305 $779,000 2,150 sq. ft. $362
2017-03-28 Condo Townhouse Fee Simple 917 17th Way Fort Lauderdale, FL 33304 $659,900 2,316 sq. ft. $285
2017-03-28 Condo Condo 1-4 Stories 1100 12th St Fort Lauderdale, FL 33315 $199,000 1,020 sq. ft. $195
2017-03-28 Condo Condo 1-4 Stories 1100 12th St Fort Lauderdale, FL 33315 $199,999 1,020 sq. ft. $196
2017-03-28 Condo Townhouse Fee Simple 2756 Treasure Cove Cir Fort Lauderdale, FL 33312 $379,000 2,006 sq. ft. $189
2017-03-28 Condo Condo 5+ Stories 2029 Ocean Blvd Fort Lauderdale, FL 33305 $349,900 1,100 sq. ft. $318
2017-03-28 Condo Co-Op 5+ Stories 347 New River Dr Fort Lauderdale, FL 33301 $1,000,000 1,918 sq. ft. $521
2017-03-28 Condo Townhouse Condo 1831 51st St Fort Lauderdale, FL 33308 $104,900 800 sq. ft. $131
2017-03-28 Condo Condo 5+ Stories 347 New River Dr Fort Lauderdale, FL 33301 $485,000 1,080 sq. ft. $449
2017-03-28 Condo Condo 5+ Stories 920 Intracoastal Dr Fort Lauderdale, FL 33304 $1,463,160 2,136 sq. ft. $685
2017-03-28 Condo Condo 5+ Stories 2715 Ocean Blvd Fort Lauderdale, FL 33308 $539,900 1,350 sq. ft. $400
2017-03-28 Condo Townhouse Fee Simple 20 10th Ave Fort Lauderdale, FL 33301 $1,375,000 3,161 sq. ft. $435
2017-03-28 Condo Condo 1-4 Stories 1501 15th St Fort Lauderdale, FL 33316 $249,900 1,035 sq. ft. $241
2017-03-28 Condo Condo 5+ Stories 2829 33rd Ct Fort Lauderdale, FL 33306 $289,900 1,300 sq. ft. $223
2017-03-28 Condo Condo 1-4 Stories 2713 15th St Fort Lauderdale, FL 33304 $395,000 1,300 sq. ft. $304
2017-03-27 Condo Co-Op 5+ Stories 3300 36th St Fort Lauderdale, FL 33308 $248,500 1,250 sq. ft. $199
2017-03-27 Condo Condo 1-4 Stories 2340 9th St Fort Lauderdale, FL 33304 $161,000 734 sq. ft. $219
2017-03-27 Condo Condo 5+ Stories 200 Birch Rd Fort Lauderdale, FL 33316 $220,000 647 sq. ft. $340
2017-03-27 Condo Condo 5+ Stories 2011 Ocean Blvd Fort Lauderdale, FL 33305 $780,000 1,685 sq. ft. $463
2017-03-27 Condo Condo 5+ Stories 2831 Ocean Blvd Fort Lauderdale, FL 33308 $625,000 1,274 sq. ft. $491
2017-03-27 Condo Other Arch; Townhouse 706 4th Avenue Fort Lauderdale, FL 33315 $315,000 1,635 sq. ft. 1,307 sq. ft. $193
2017-03-27 Condo Townhouse Condo 4932 Tradewinds Ter Fort Lauderdale, FL 33312 $244,900 1,616 sq. ft. $152
2017-03-27 Condo Condo 5+ Stories 1625 10th Ave Fort Lauderdale, FL 33316 $186,900 800 sq. ft. $234
2017-03-27 Condo 1901 Ocean Boulevard Fort Lauderdale, FL 33305 $715,000 1,500 sq. ft. $477
2017-03-26 Condo Condo 5+ Stories 3500 Galt Ocean Dr Fort Lauderdale, FL 33308 $875,000 2,124 sq. ft. $412
2017-03-26 Condo Condo 5+ Stories 2845 9th St Fort Lauderdale, FL 33304 $3,100,000 4,080 sq. ft. $760
2017-03-26 Condo Condo 5+ Stories 315 3rd Ave Fort Lauderdale, FL 33301 $312,900 1,155 sq. ft. $271
2017-03-26 Condo Condo 5+ Stories 4300 Ocean Blvd Fort Lauderdale, FL 33308 $799,000 2,400 sq. ft. $333
2017-03-26 Condo Condo 5+ Stories 1819 17th St Fort Lauderdale, FL 33316 $749,000 1,860 sq. ft. $403
2017-03-25 Condo Townhouse Fee Simple 643 9th Ave Fort Lauderdale, FL 33304 $499,500 1,686 sq. ft. $296
2017-03-25 Condo Condo 5+ Stories 347 New River Dr E Fort Lauderdale, FL 33301 $949,000 1,919 sq. ft. $495
2017-03-25 Condo Condo 5+ Stories 888 Intracoastal Dr Fort Lauderdale, FL 33304 $285,000 955 sq. ft. $298
2017-03-25 Condo Co-Op 1-4 Stories 180 Isle Of Venice Dr Fort Lauderdale, FL 33301 $310,000 1,140 sq. ft. $272
2017-03-25 Condo Condo 1-4 Stories 6221 Bay Club Dr Fort Lauderdale, FL 33308 $259,000 1,250 sq. ft. $207
2017-03-25 Condo Condo 5+ Stories 2200 Ocean Ln Fort Lauderdale, FL 33316 $1,295,000 2,003 sq. ft. $647
2017-03-25 Condo Townhouse Condo 2027 10th Ave Fort Lauderdale, FL 33316 $240,000 878 sq. ft. $273
2017-03-25 Condo Condo 1-4 Stories 1600 15th St Fort Lauderdale, FL 33316 $249,900 1,020 sq. ft. $245
2017-03-25 Condo Condo 5+ Stories 3410 Galt Ocean Dr Fort Lauderdale, FL 33308 $675,000 1,662 sq. ft. $406
2017-03-24 Condo Condo 5+ Stories 347 New River Dr Fort Lauderdale, FL 33301 $630,000 1,178 sq. ft. $535
2017-03-24 Condo Condo 5+ Stories Fort Lauderdale, FL $380,000 1,200 sq. ft. $317
2017-03-24 Condo Condo 5+ Stories 3020 32nd Ave Fort Lauderdale, FL 33308 $325,000 1,170 sq. ft. $278
2017-03-24 Condo Co-Op 1-4 Stories 1850 Ocean Dr Fort Lauderdale, FL 33316 $195,000
2017-03-24 Condo Condo 1-4 Stories 2171 66th St Fort Lauderdale, FL 33308 $99,000 875 sq. ft. $113
2017-03-24 Condo Townhouse Fee Simple 809 12th Ct Fort Lauderdale, FL 33316 $675,000 2,048 sq. ft. $330
2017-03-24 Condo Condo 5+ Stories 533 3rd Ave Fort Lauderdale, FL 33301 $180,999 667 sq. ft. $271
2017-03-23 Condo Condo 5+ Stories 511 5th Ave Fort Lauderdale, FL 33301 $289,900 1,246 sq. ft. $233
2017-03-23 Condo Condo 1-4 Stories 815 Middle River Dr Fort Lauderdale, FL 33304 $190,000 450 sq. ft. $422
2017-03-23 Condo Condo 1-4 Stories Fort Lauderdale, FL $135,000 675 sq. ft. $200
2017-03-23 Condo Condo 5+ Stories 2110 Ocean Blvd Fort Lauderdale, FL 33305 $2,750,000 4,260 sq. ft. $646
2017-03-23 Condo Condo 5+ Stories 1901 Ocean Blvd Fort Lauderdale, FL 33305 $619,000 1,500 sq. ft. $413
2017-03-23 Condo Condo 5+ Stories 533 3rd Ave Fort Lauderdale, FL 33301 $209,900 960 sq. ft. $219
2017-03-23 Condo Condo 5+ Stories 516 Hendricks Isle Fort Lauderdale, FL 33301 $895,000 2,104 sq. ft. $425
2017-03-23 Condo Condo 5+ Stories 511 5th Ave Fort Lauderdale, FL 33301 $294,000 1,017 sq. ft. $289
2017-03-23 Condo Condo 5+ Stories 3850 Galt Ocean Dr Fort Lauderdale, FL 33308 $329,000 1,050 sq. ft. $313
2017-03-23 Condo Condo 1-4 Stories 1025 18th Ave Fort Lauderdale, FL 33304 $269,000 590 sq. ft. $456
2017-03-23 Condo Condo 1-4 Stories Fort Lauderdale, FL $116,000 750 sq. ft. $155
2017-03-23 Condo Contemporary 3900 Galt Ocean Drive Fort Lauderdale, FL 33308 $475,000 1,153 sq. ft. $412
2017-03-23 Condo Condo 1-4 Stories 1777 15th St Fort Lauderdale, FL 33316 $250,000 724 sq. ft. $345
2017-03-22 Condo Condo 1-4 Stories 2765 14th St Fort Lauderdale, FL 33304 $950,000 2,950 sq. ft. $322
2017-03-22 Condo Condo 5+ Stories 3550 Galt Ocean Dr Fort Lauderdale, FL 33308 $497,000 1,575 sq. ft. $316
2017-03-22 Condo Condo 5+ Stories 511 5th Ave Fort Lauderdale, FL 33301 $348,000 1,246 sq. ft. $279
2017-03-22 Condo Condo 5+ Stories 4020 Galt Ocean Dr Fort Lauderdale, FL 33308 $568,900 1,907 sq. ft. $298
2017-03-22 Condo Condo 5+ Stories 411 New River Dr Fort Lauderdale, FL 33301 $1,205,000 2,635 sq. ft. $457
2017-03-22 Condo Condo 5+ Stories 3100 Ocean Blvd Fort Lauderdale, FL 33308 $1,355,000 1,977 sq. ft. $685
2017-03-22 Condo Condo 5+ Stories 209 Fort Lauderdale Beac Fort Lauderdale, FL 33304 $430,000 950 sq. ft. $453
2017-03-22 Condo Condo 5+ Stories 2100 Ocean Ln Fort Lauderdale, FL 33316 $950,000 2,116 sq. ft. $449
2017-03-22 Condo Co-Op 5+ Stories 3300 36th St Fort Lauderdale, FL 33308 $179,000 800 sq. ft. $224
2017-03-22 Condo Condo 1-4 Stories 2005 10th Ave Fort Lauderdale, FL 33316 $238,000 1,054 sq. ft. $226
2017-03-22 Condo Condo 5+ Stories 920 Intracoastal Dr Fort Lauderdale, FL 33304 $1,917,600 3,196 sq. ft. $600
2017-03-22 Condo Condo 5+ Stories 620 Bayshore Drive Fort Lauderdale, FL 33304 $1,400,000 2,104 sq. ft. $665
2017-03-22 Condo Condo 5+ Stories 3050 47th Ct Fort Lauderdale, FL 33308 $459,900 1,800 sq. ft. $256
2017-03-22 Condo Condo 5+ Stories 3020 32nd Ave Fort Lauderdale, FL 33308 $408,900 1,100 sq. ft. $372
2017-03-22 Condo Condo 1-4 Stories 6451 Bay Club Dr Fort Lauderdale, FL 33308 $286,000 1,200 sq. ft. $238
2017-03-21 Condo Townhouse Condo 476 2nd Ave Fort Lauderdale, FL 33301 $339,900 1,680 sq. ft. $202
2017-03-21 Condo Co-Op 5+ Stories 3233 34th St Fort Lauderdale, FL 33308 $149,900 767 sq. ft. $195
2017-03-21 Condo Condo 5+ Stories 1600 15th St Fort Lauderdale, FL 33316 $249,000 1,020 sq. ft. $244
2017-03-21 Condo Condo 5+ Stories 1 Las Olas Cir Fort Lauderdale, FL 33316 $895,000 1,575 sq. ft. $568
2017-03-21 Condo Townhouse Fee Simple 2366 18th Fort Lauderdale, FL 33315 $439,000 2,186 sq. ft. $201
2017-03-21 Condo Townhouse Fee Simple 2370 18th Fort Lauderdale, FL 33315 $465,000 2,100 sq. ft. $221
2017-03-21 Condo Townhouse Fee Simple 2362 18th Fort Lauderdale, FL 33315 $449,000 2,247 sq. ft. $200
2017-03-21 Condo Townhouse Fee Simple 2368 18th St Fort Lauderdale, FL 33315 $485,000
2017-03-21 Condo Co-Op 1-4 Stories 6261 19th Ave Fort Lauderdale, FL 33308 $80,000 650 sq. ft. $123
2017-03-21 Condo Condo 1-4 Stories 5203 24th Ter Fort Lauderdale, FL 33308 $89,000 650 sq. ft. $137
2017-03-21 Condo Townhouse 808 4th Avenue Fort Lauderdale, FL 33315 $415,000 1,650 sq. ft. 2,614 sq. ft. $252
2017-03-21 Condo Condo 1-4 Stories 2550 18th Ter Fort Lauderdale, FL 33315 $162,500 927 sq. ft. $175
2017-03-21 Condo Condo 1-4 Stories 2424 17th Cswy Fort Lauderdale, FL 33316 $167,500 685 sq. ft. $245
2017-03-21 Condo Townhouse Condo 2107 10th Ave Fort Lauderdale, FL 33316 $197,000 878 sq. ft. $224
2017-03-21 Condo Condo 1-4 Stories 601 5th Ct Fort Lauderdale, FL 33301 $195,000 620 sq. ft. $315
2017-03-21 Condo Condo 5+ Stories 347 New River Dr Fort Lauderdale, FL 33301 $600,000 1,204 sq. ft. $498
2017-03-21 Condo Condo 5+ Stories 347 New River Dr E Fort Lauderdale, FL 33301 $649,000 1,204 sq. ft. $539
2017-03-20 Condo Condo 5+ Stories 3550 Galt Ocean Dr Fort Lauderdale, FL 33308 $495,000 1,656 sq. ft. $299
2017-03-20 Condo Condo 1-4 Stories 332 14th Ave Fort Lauderdale, FL 33312 $189,990 856 sq. ft. $222
2017-03-20 Condo Condo 5+ Stories 3010 Holiday Dr Fort Lauderdale, FL 33316 $1,950,000 4,250 sq. ft. $459
2017-03-20 Condo Condo 5+ Stories 3010 Holiday Dr Fort Lauderdale, FL 33316 $2,200,000 4,250 sq. ft. $518
2017-03-20 Condo Condo 5+ Stories 1905 Ocean Bl Fort Lauderdale, FL 33305 $725,000 1,500 sq. ft. $483
2017-03-20 Condo Condo 5+ Stories 209 Birch Road Fort Lauderdale, FL 33304 $774,000 2,410 sq. ft. $321
2017-03-20 Condo Condo 5+ Stories 2100 Ocean Ln Fort Lauderdale, FL 33316 $2,399,000 3,176 sq. ft. $755
2017-03-20 Condo Co-Op 5+ Stories 3233 34th St Fort Lauderdale, FL 33308 $210,000 1,120 sq. ft. $188
2017-03-20 Condo Condo 5+ Stories 800 4th St Fort Lauderdale, FL 33301 $435,000 1,330 sq. ft. $327
2017-03-20 Condo Condo 5+ Stories 3015 Ocean Blvd Fort Lauderdale, FL 33308 $289,000 1,328 sq. ft. $218
2017-03-20 Condo Condo 5+ Stories 2841 Ocean Blvd Fort Lauderdale, FL 33308 $354,900 1,100 sq. ft. $323
2017-03-20 Condo Condo 1-4 Stories 3223 36th St Fort Lauderdale, FL 33308 $399,000 1,200 sq. ft. $332
2017-03-20 Condo Condo 5+ Stories 610 Las Olas Blvd Fort Lauderdale, FL 33312 $389,000 1,079 sq. ft. $361
2017-03-20 Condo Condo 5+ Stories 511 5th Ave Fort Lauderdale, FL 33301 $439,900 1,692 sq. ft. $260
2017-03-20 Condo Condo 5+ Stories 1151 Fort Lauderdale Bch Fort Lauderdale, FL 33304 $599,900 1,700 sq. ft. $353
2017-03-19 Condo Condo 5+ Stories 3010 Holiday Dr Fort Lauderdale, FL 33316 $1,750,000 4,250 sq. ft. $412
2017-03-19 Condo Condo 1-4 Stories 1125 16th Pl Fort Lauderdale, FL 33305 $159,000 740 sq. ft. $215
2017-03-18 Condo Condo 5+ Stories 2900 30 Fort Lauderdale, FL 33306 $224,900 675 sq. ft. $333
2017-03-18 Condo Condo 5+ Stories 3101 47th Ct Fort Lauderdale, FL 33308 $320,000 1,721 sq. ft. $186
2017-03-18 Condo Condo 5+ Stories 340 Sunset Dr Fort Lauderdale, FL 33301 $365,000 1,218 sq. ft. $300
2017-03-18 Condo Condo 5+ Stories 1050 15th St Fort Lauderdale, FL 33316 $210,000 780 sq. ft. $269
2017-03-17 Condo Condo 1-4 Stories 3010 Holiday Drive Fort Lauderdale, FL 33316 $1,600,000 4,250 sq. ft. $376
2017-03-17 Condo Condo 1-4 Stories 2260 67th St Fort Lauderdale, FL 33308 $148,500 950 sq. ft. $156
2017-03-17 Condo Condo 5+ Stories 5300 24th Ter Fort Lauderdale, FL 33308 $149,000 928 sq. ft. $161
2017-03-17 Condo Condo-Hotel 505 Fort Lauderdale Beac Fort Lauderdale, FL 33304 $235,000 533 sq. ft. $441
2017-03-17 Condo Condo 5+ Stories 2200 33rd Ave Fort Lauderdale, FL 33305 $229,900 1,103 sq. ft. $208
2017-03-17 Condo Condo 5+ Stories 2100 Ocean Ln Fort Lauderdale, FL 33316 $1,025,000 1,880 sq. ft. $545
2017-03-17 Condo Condo 5+ Stories 3031 Ocean Blvd Fort Lauderdale, FL 33308 $459,000 1,100 sq. ft. $417
2017-03-17 Condo Condo 5+ Stories 347 New River Drive E Fort Lauderdale, FL 33301 $539,000 1,178 sq. ft. $458
2017-03-17 Condo Condo 5+ Stories 3015 Ocean Bl Fort Lauderdale, FL 33308 $300,000 1,100 sq. ft. $273
2017-03-17 Condo Condo 5+ Stories 435 Andrews Ave Fort Lauderdale, FL 33301 $304,900
2017-03-16 Condo Condo 5+ Stories 3500 Galt Ocean Dr Fort Lauderdale, FL 33308 $589,000 1,435 sq. ft. $410
2017-03-16 Condo Condo 1-4 Stories 4770 Bayview Dr Fort Lauderdale, FL 33308 $312,000 1,285 sq. ft. $243
2017-03-16 Condo Townhouse Fee Simple 1421 Bayview Dr Fort Lauderdale, FL 33304 $729,000 2,656 sq. ft. $274
2017-03-16 Condo Co-Op 5+ Stories 3333 34 St Fort Lauderdale, FL 33308 $147,500 800 sq. ft. $184
2017-03-16 Condo Condo 5+ Stories 4040 Galt Ocean Dr Fort Lauderdale, FL 33308 $279,000 740 sq. ft. $377
2017-03-16 Condo Condo 5+ Stories 4010 Galt Ocean Dr Fort Lauderdale, FL 33308 $389,000 1,100 sq. ft. $354
2017-03-16 Condo Co-Op 5+ Stories 3200 36th St Fort Lauderdale, FL 33308 $134,900 800 sq. ft. $169
2017-03-16 Condo Co-Op 5+ Stories 1920 Ocean Dr Fort Lauderdale, FL 33316 $219,900 805 sq. ft. $273
2017-03-16 Condo Condo 5+ Stories 511 5th Ave Fort Lauderdale, FL 33301 $290,000 1,246 sq. ft. $233
2017-03-16 Condo Condo 5+ Stories 2841 Ocean Blvd Fort Lauderdale, FL 33308 $359,000 1,100 sq. ft. $326
2017-03-16 Condo Condo 5+ Stories Fort Lauderdale, FL $330,000 1,083 sq. ft. $305
2017-03-15 Condo Townhouse Fee Simple 1315 1th St Fort Lauderdale, FL 33301 $519,000 1,666 sq. ft. $312
2017-03-15 Condo Condo 1-4 Stories Fort Lauderdale, FL $174,000 927 sq. ft. $188
2017-03-15 Condo Condo 5+ Stories 520 5th Ave Fort Lauderdale, FL 33301 $240,000 1,153 sq. ft. $208
2017-03-15 Condo Condo 5+ Stories 4250 Galt Ocean Dr Fort Lauderdale, FL 33308 $259,000 1,003 sq. ft. $258
2017-03-15 Condo Townhouse Fee Simple 521 18th Ave Fort Lauderdale, FL 33312 $279,900 1,912 sq. ft. $146
2017-03-15 Condo Co-Op 5+ Stories 345 Fort Lauderdale Beac Fort Lauderdale, FL 33304 $389,000 795 sq. ft. $489
2017-03-15 Condo Condo 1-4 Stories 499 13th St Fort Lauderdale, FL 33316 $199,900 1,000 sq. ft. $200
2017-03-15 Condo Condo 1-4 Stories 2009 10 Avenue Fort Lauderdale, FL 33316 $268,000 1,054 sq. ft. $254
2017-03-15 Condo Condo 1-4 Stories 2616 30th Pl Fort Lauderdale, FL 33306 $98,900 600 sq. ft. $165
2017-03-15 Condo Condo 5+ Stories 1201 River Reach Dr Fort Lauderdale, FL 33315 $259,000 1,500 sq. ft. $173
2017-03-15 Condo Co-Op 5+ Stories 1900 Ocean Drive Fort Lauderdale, FL 33316 $299,900
2017-03-15 Condo Townhouse Fee Simple 3053 49th St Fort Lauderdale, FL 33308 $399,000 1,612 sq. ft. $248
2017-03-15 Condo Condo 1-4 Stories 2109 68th St Fort Lauderdale, FL 33308 $144,900 1,200 sq. ft. $121
2017-03-15 Condo 4250 Galt Ocean Drive Fort Lauderdale, FL 33308 $429,000 1,350 sq. ft. $318
2017-03-15 Condo Condo 5+ Stories 610 Las Olas Blvd Fort Lauderdale, FL 33312 $264,000 798 sq. ft. $331
2017-03-14 Condo Condo 5+ Stories 3750 Galt Ocean Dr Fort Lauderdale, FL 33308 $433,900 1,187 sq. ft. $366
2017-03-14 Condo Condo 5+ Stories 520 5th Ave Fort Lauderdale, FL 33301 $275,000 1,447 sq. ft. $190
2017-03-14 Condo Condo 1-4 Stories 5201 24th Ter Fort Lauderdale, FL 33308 $164,900 875 sq. ft. $188
2017-03-14 Condo Condo 5+ Stories 340 Sunset Dr Fort Lauderdale, FL 33301 $449,900 1,534 sq. ft. $293
2017-03-14 Condo Co-Op 1-4 Stories 2800 14th St Fort Lauderdale, FL 33304 $220,000 840 sq. ft. $262
2017-03-14 Condo Condo 5+ Stories 100 Federal Hwy Fort Lauderdale, FL 33301 $375,000 1,131 sq. ft. $332
2017-03-14 Condo Condo 5+ Stories 936 Intracoastal Dr Fort Lauderdale, FL 33304 $499,000 1,685 sq. ft. $296
2017-03-14 Condo Condo/Timeshare 524 Orton Avenue Fort Lauderdale, FL 33304 $285,000 855 sq. ft. $333
2017-03-13 Condo Townhouse Fee Simple 2941 Hidden Harbour St Fort Lauderdale, FL 33312 $599,999 2,856 sq. ft. $210
2017-03-13 Condo Condo 5+ Stories 900 River Reach Dr Fort Lauderdale, FL 33315 $169,900 900 sq. ft. $189
2017-03-13 Condo Condo 5+ Stories 2200 Ocean Ln Fort Lauderdale, FL 33316 $1,295,000 2,011 sq. ft. $644
2017-03-13 Condo Townhouse Fee Simple 2918 Port Royale Ln Fort Lauderdale, FL 33308 $429,900 1,645 sq. ft. $261
2017-03-13 Condo Condo 5+ Stories 4250 Galt Ocean Dr Fort Lauderdale, FL 33308 $209,000 1,005 sq. ft. $208
2017-03-13 Condo Condo 5+ Stories 2829 33rd Ct Fort Lauderdale, FL 33306 $279,000 1,300 sq. ft. $215
2017-03-13 Condo Condo 5+ Stories 100 Birch Rd Fort Lauderdale, FL 33316 $1,395,000 2,000 sq. ft. $698
2017-03-13 Condo Condo 5+ Stories 45 Hendricks Isle Fort Lauderdale, FL 33301 $898,000 2,018 sq. ft. $445
2017-03-13 Condo Townhouse Fee Simple 1103 3rd Ave Fort Lauderdale, FL 33304 $424,999 2,085 sq. ft. $204
2017-03-13 Condo Condo 5+ Stories 4010 Galt Ocean Dr Fort Lauderdale, FL 33308 $529,500 1,520 sq. ft. $348
2017-03-12 Condo 54 Isle Of Venice Drive Fort Lauderdale, FL 33301 $349,000 550 sq. ft. $635
2017-03-12 Condo Condo 5+ Stories 3000 Holiday Dr Fort Lauderdale, FL 33316 $449,900 1,179 sq. ft. $382
2017-03-11 Condo Condo 5+ Stories 401 4th Ave Fort Lauderdale, FL 33315 $284,888 892 sq. ft. $319
2017-03-11 Condo Condo 1-4 Stories 1100 12th St Fort Lauderdale, FL 33315 $219,000 1,020 sq. ft. $215
2017-03-11 Condo Condo 5+ Stories 3200 Port Royale Dr Fort Lauderdale, FL 33308 $339,000 1,290 sq. ft. $263
2017-03-11 Condo Condo 5+ Stories Fort Lauderdale, FL $325,000 1,083 sq. ft. $300
2017-03-10 Condo Condo 5+ Stories 3410 Galt Ocean Drive Fort Lauderdale, FL 33308 $415,000 1,575 sq. ft. $263
2017-03-10 Condo Condo 5+ Stories 4100 Galt Ocean Dr Fort Lauderdale, FL 33308 $479,900 1,190 sq. ft. $403
2017-03-10 Condo Condo 1-4 Stories 4528 54th St Fort Lauderdale, FL 33314 $120,000 950 sq. ft. $126
2017-03-10 Condo Condo 5+ Stories 111 8 Av Fort Lauderdale, FL 33301 $1,389,000 3,270 sq. ft. $425
2017-03-10 Condo Condo 5+ Stories 3200 29th St Fort Lauderdale, FL 33308 $329,000 1,295 sq. ft. $254
2017-03-10 Condo Co-Op 1-4 Stories 1801 62nd St Fort Lauderdale, FL 33308 $98,000 950 sq. ft. $103
2017-03-10 Condo Condo 1-4 Stories 713 8th Ave Fort Lauderdale, FL 33315 $549,900 2,400 sq. ft. $229
2017-03-10 Condo Co-Op 1-4 Stories 624 Antioch Fort Lauderdale, FL 33304 $140,000 690 sq. ft. $203
2017-03-10 Condo Condo 5+ Stories 3400 Galt Ocean Dr Fort Lauderdale, FL 33308 $459,000 1,575 sq. ft. $291
2017-03-10 Condo Condo 1-4 Stories 3110 29th St Fort Lauderdale, FL 33308 $421,500 990 sq. ft. $426
2017-03-10 Condo Condo 1-4 Stories 650 Tennis Club Dr Fort Lauderdale, FL 33311 $164,900 1,168 sq. ft. $141
2017-03-10 Condo Key West; Townhouse 243 13th Terrace Fort Lauderdale, FL 33312 $299,000 1,939 sq. ft. $154
2017-03-09 Condo Condo 1-4 Stories 2455 51st St Fort Lauderdale, FL 33308 $169,000 875 sq. ft. $193
2017-03-09 Condo Condo 5+ Stories 2500 Las Olas Blvd Fort Lauderdale, FL 33301 $419,900 1,230 sq. ft. $341
2017-03-09 Condo Condo 5+ Stories 1800 Andrews Ave Fort Lauderdale, FL 33311 $167,800 850 sq. ft. $197
2017-03-09 Condo Condo 5+ Stories 1625 10th Ave Fort Lauderdale, FL 33316 $295,000 1,300 sq. ft. $227
2017-03-09 Condo Condo-Hotel 2670 Sunrise Blvd Fort Lauderdale, FL 33304 $189,000
2017-03-09 Condo Condo-Hotel 2670 Sunrise Blvd Fort Lauderdale, FL 33304 $189,000
2017-03-09 Condo Condo 5+ Stories Fort Lauderdale, FL $190,000 935 sq. ft. $203
2017-03-09 Condo Condo 5+ Stories 2100 Ocean Ln Fort Lauderdale, FL 33316 $999,000 1,879 sq. ft. $532
2017-03-09 Condo Condo 1-4 Stories 2421 65th St Fort Lauderdale, FL 33308 $249,950 1,120 sq. ft. $223
2017-03-09 Condo Condo 1-4 Stories 5203 24th Ter Fort Lauderdale, FL 33308 $99,777 650 sq. ft. $154
2017-03-09 Condo Condo-Hotel 505 Ft Lauderdale Bch Bl Fort Lauderdale, FL 33304 $319,000 584 sq. ft. $546
2017-03-09 Condo Townhouse Fee Simple 5500 28th Ter Fort Lauderdale, FL 33312 $185,000 1,080 sq. ft. $171
2017-03-09 Condo Townhouse Condo 424 Hendricks Isle Fort Lauderdale, FL 33301 $709,000
2017-03-09 Condo Condo 5+ Stories 347 New River Dr Fort Lauderdale, FL 33301 $349,500 820 sq. ft. $426
2017-03-08 Condo Villa Fee Simple 5201 31st Ave Fort Lauderdale, FL 33312 $210,000 1,339 sq. ft. $157
2017-03-08 Condo Co-Op 1-4 Stories 700 Bayshore Dr Fort Lauderdale, FL 33304 $159,900 790 sq. ft. $202
2017-03-08 Condo Condo-Hotel 3101 Bayshore Dr Fort Lauderdale, FL 33304 $949,000 825 sq. ft. $1,150
2017-03-08 Condo < 4 Floors; Contemporary 610 11th Avenue Fort Lauderdale, FL 33304 $610,000 1,780 sq. ft. 2,614 sq. ft. $343
2017-03-08 Condo Condo 5+ Stories 101 Fort Lauderdale Beac Fort Lauderdale, FL 33316 $2,050,000 2,380 sq. ft. $861
2017-03-08 Condo Condo 5+ Stories 3430 Galt Ocean Dr Fort Lauderdale, FL 33308 $379,000 1,100 sq. ft. $345
2017-03-08 Condo Condo 5+ Stories 4240 Galt Ocean Dr Fort Lauderdale, FL 33308 $780,000 1,836 sq. ft. $425
2017-03-08 Condo Townhouse Fee Simple 15 15th Ave Fort Lauderdale, FL 33301 $1,099,000 3,178 sq. ft. $346
2017-03-08 Condo Condo 5+ Stories 3700 Galt Ocean Dr Fort Lauderdale, FL 33308 $187,900 600 sq. ft. $313
2017-03-08 Condo Condo 5+ Stories 5100 Dupont Blvd Fort Lauderdale, FL 33308 $208,888 924 sq. ft. $226
2017-03-07 Condo Townhouse Condo 1608 9th St Fort Lauderdale, FL 33304 $499,999 2,682 sq. ft. $186
2017-03-07 Condo Condo 5+ Stories 333 Las Olas Way Fort Lauderdale, FL 33301 $1,679,000 2,726 sq. ft. $616
2017-03-07 Condo Condo 5+ Stories 3015 Ocean Blvd Fort Lauderdale, FL 33308 $355,000 1,144 sq. ft. $310
2017-03-07 Condo Condo 5+ Stories 4300 Ocean Blvd Fort Lauderdale, FL 33308 $725,000 2,400 sq. ft. $302
2017-03-07 Condo Condo 5+ Stories 715 Bayshore Dr Fort Lauderdale, FL 33304 $1,350,000 2,992 sq. ft. $451
2017-03-07 Condo Townhouse Fee Simple 1114 2nd Ave Fort Lauderdale, FL 33304 $385,000 2,240 sq. ft. $172
2017-03-07 Condo Condo 5+ Stories 2200 Ocean Ln Fort Lauderdale, FL 33316 $509,000 1,188 sq. ft. $428
2017-03-07 Condo Co-Op 1-4 Stories 2000 Ocean Ln Fort Lauderdale, FL 33316 $565,000 1,010 sq. ft. $559
2017-03-07 Condo Condo 1-4 Stories 3111 51st St Fort Lauderdale, FL 33308 $269,000 1,300 sq. ft. $207
2017-03-07 Condo Condo 5+ Stories 2300 33 Fort Lauderdale, FL 33305 $450,000 1,369 sq. ft. $329
2017-03-07 Condo Condo 1-4 Stories 2445 18th Ter Fort Lauderdale, FL 33315 $120,000 682 sq. ft. $176
2017-03-06 Condo Condo 5+ Stories 401 4th Ave Fort Lauderdale, FL 33315 $355,000 1,215 sq. ft. $292
2017-03-06 Condo Villa Condo 6820 31st Ave Fort Lauderdale, FL 33309 $179,000 1,170 sq. ft. $153
2017-03-06 Condo Condo 5+ Stories 2200 Ocean Ln Fort Lauderdale, FL 33316 $1,100,000 1,765 sq. ft. $623
2017-03-06 Condo Condo 5+ Stories 4240 Galt Ocean Dr Fort Lauderdale, FL 33308 $775,000 1,836 sq. ft. $422
2017-03-06 Condo Condo 5+ Stories 333 Las Olas Way Fort Lauderdale, FL 33301 $819,000 1,522 sq. ft. $538
2017-03-06 Condo Condo 1-4 Stories 3016 69th Ct Fort Lauderdale, FL 33309 $125,900 1,150 sq. ft. $109
2017-03-06 Condo Condo 5+ Stories 1800 Andrews Ave Fort Lauderdale, FL 33311 $158,995 850 sq. ft. $187
2017-03-06 Condo Condo 5+ Stories 2800 Sunrise Blvd Fort Lauderdale, FL 33304 $298,000 1,000 sq. ft. $298
2017-03-06 Condo Townhouse Condo 3100 47 Court Fort Lauderdale, FL 33308 $799,000 2,909 sq. ft. $275
2017-03-06 Condo Condo 1-4 Stories 3107 27th St Fort Lauderdale, FL 33308 $829,000 1,560 sq. ft. $531
2017-03-06 Condo Condo 5+ Stories 301 Birch Rd Fort Lauderdale, FL 33304 $1,159,000 3,300 sq. ft. $351
2017-03-06 Condo Condo 5+ Stories 2000 Ocean Blvd Fort Lauderdale, FL 33308 $399,000 497 sq. ft. $803
2017-03-06 Condo Condo 5+ Stories 888 Intracoastal Dr Fort Lauderdale, FL 33304 $235,000 960 sq. ft. $245
2017-03-06 Condo Condo 5+ Stories 936 Intracoastal Dr Fort Lauderdale, FL 33304 $479,900 1,500 sq. ft. $320
2017-03-06 Condo Condo 5+ Stories 2800 Sunrise Fort Lauderdale, FL 33304 $795,000 2,498 sq. ft. $318
2017-03-06 Condo Condo 5+ Stories 110 Federal Hwy Fort Lauderdale, FL 33301 $629,000 1,369 sq. ft. $459
2017-03-05 Condo Co-Op 5+ Stories 3333 34th St Fort Lauderdale, FL 33308 $139,600 800 sq. ft. $174
2017-03-05 Condo Condo 5+ Stories 1160 Federal Hwy Fort Lauderdale, FL 33304 $207,000 1,050 sq. ft. $197
2017-03-05 Condo Townhouse Condo 1218 Victoria Park Rd Fort Lauderdale, FL 33304 $525,000 1,914 sq. ft. $274
2017-03-05 Condo Townhouse Condo 1774 9th St Fort Lauderdale, FL 33304 $574,900 2,595 sq. ft. $222
2017-03-05 Condo Condo 1-4 Stories Fort Lauderdale, FL 33334 $119,900 820 sq. ft. $146
2017-03-05 Condo Condo 5+ Stories 6000 22nd Way Fort Lauderdale, FL 33308 $194,900 1,170 sq. ft. $167
2017-03-05 Condo Condo-Hotel 601 Fort Lauderdale Beac Fort Lauderdale, FL 33304 $395,000 600 sq. ft. $658
2017-03-05 Condo 3300 36th Street Fort Lauderdale, FL 33308 $199,000 1,300 sq. ft. $153
2017-03-05 Condo Condo 5+ Stories 4010 Galt Ocean Dr Fort Lauderdale, FL 33308 $300,000
2017-03-04 Condo Condo 5+ Stories 936 Intracoastal Dr Fort Lauderdale, FL 33304 $469,000 1,500 sq. ft. $313
2017-03-04 Condo Townhouse Fee Simple 641 11th Ave Fort Lauderdale, FL 33304 $629,900 2,322 sq. ft. $271
2017-03-04 Condo Condo 1-4 Stories 2801 33rd Ct Fort Lauderdale, FL 33306 $182,000 870 sq. ft. $209
2017-03-04 Condo Condo 5+ Stories 1160 Federal Hwy Fort Lauderdale, FL 33304 $214,900
2017-03-03 Condo Condo 5+ Stories 2500 Las Olas Blvd Fort Lauderdale, FL 33301 $449,000 1,710 sq. ft. $263
2017-03-03 Condo Townhouse Fee Simple 200 14th Ave Fort Lauderdale, FL 33301 $629,000 2,428 sq. ft. $259
2017-03-03 Condo Condo 5+ Stories 900 18th Ave Fort Lauderdale, FL 33304 $119,000 690 sq. ft. $172
2017-03-03 Condo Condo 5+ Stories 5911 14th Ln Fort Lauderdale, FL 33334 $145,000 1,280 sq. ft. $113
2017-03-03 Condo Condo 5+ Stories Fort Lauderdale, FL 33308 $219,700
2017-03-03 Condo Condo 5+ Stories 411 New River Dr Fort Lauderdale, FL 33301 $975,000 1,630 sq. ft. $598
2017-03-03 Condo Co-Op 1-4 Stories 2142 56th Ct Fort Lauderdale, FL 33308 $69,950 600 sq. ft. $117
2017-03-03 Condo Condo 5+ Stories 110 Federal Hy Fort Lauderdale, FL 33301 $359,000 1,250 sq. ft. $287
2017-03-03 Condo Condo 5+ Stories 2401 65th St Fort Lauderdale, FL 33308 $259,900 1,132 sq. ft. $230
2017-03-03 Condo Condo 5+ Stories 315 3rd Ave Fort Lauderdale, FL 33301 $377,000 1,285 sq. ft. $293
2017-03-02 Condo Condo 5+ Stories 110 Federal Hwy Fort Lauderdale, FL 33301 $269,000 780 sq. ft. $345
2017-03-02 Condo Townhouse Condo 424 13th Ter Fort Lauderdale, FL 33312 $399,000 2,539 sq. ft. $157
2017-03-02 Condo Condo 5+ Stories 333 Las Olas Way Fort Lauderdale, FL 33301 $1,995,000 2,726 sq. ft. $732
2017-03-02 Condo Condo 1-4 Stories 2801 14th St Fort Lauderdale, FL 33304 $429,900 1,560 sq. ft. $276
2017-03-02 Condo Co-Op 5+ Stories 345 Fort Lauderdale Beac Fort Lauderdale, FL 33304 $675,000 1,195 sq. ft. $565
2017-03-02 Condo Condo 5+ Stories 520 5th Ave Fort Lauderdale, FL 33301 $223,900 808 sq. ft. $277
2017-03-02 Condo Condo 5+ Stories 3400 Galt Ocean Dr Fort Lauderdale, FL 33308 $565,000 1,662 sq. ft. $340
2017-03-02 Condo Condo 5+ Stories 2831 Ocean Blvd Fort Lauderdale, FL 33308 $549,000 1,274 sq. ft. $431
2017-03-02 Condo Condo 1-4 Stories 2665 Middle River Dr Fort Lauderdale, FL 33306 $129,000 686 sq. ft. $188
2017-03-02 Condo Co-Op 5+ Stories 3200 36th St Fort Lauderdale, FL 33308 $350,000 1,120 sq. ft. $312
2017-03-02 Condo Co-Op 5+ Stories 3333 34th St Fort Lauderdale, FL 33308 $138,900 800 sq. ft. $174
2017-03-02 Condo Condo 5+ Stories 3800 Galt Ocean Dr Fort Lauderdale, FL 33308 $639,900 1,172 sq. ft. $546
2017-03-02 Condo Co-Op 1-4 Stories 180 Isle Of Venice Dr Fort Lauderdale, FL 33301 $245,000 760 sq. ft. $322
2017-03-02 Condo Condo 5+ Stories 3500 Galt Ocean Dr Fort Lauderdale, FL 33308 $549,999 1,435 sq. ft. $383
2017-03-02 Condo Co-Op 5+ Stories 3233 34th Street Fort Lauderdale, FL 33308 $247,500 982 sq. ft. $252
2017-03-02 Condo Condo 5+ Stories 3430 Galt Ocean Dr Fort Lauderdale, FL 33308 $319,000 1,103 sq. ft. $289
2017-03-02 Condo Condo 5+ Stories 2831 Ocean Blvd Fort Lauderdale, FL 33308 $779,000 1,630 sq. ft. $478
2017-03-01 Condo Condo 5+ Stories 3031 51st St Fort Lauderdale, FL 33308 $325,000 1,300 sq. ft. $250
2017-03-01 Condo Condo/Timeshare Fort Lauderdale, FL $525,000 1,900 sq. ft. $276
2017-03-01 Condo Condo 5+ Stories 2100 Ocean Dr Fort Lauderdale, FL 33316 $339,000 920 sq. ft. $368
2017-03-01 Condo Townhouse Fee Simple 835 16th Ter Fort Lauderdale, FL 33304 $545,000 2,414 sq. ft. $226
2017-03-01 Condo Condo 5+ Stories 411 New River Dr Fort Lauderdale, FL 33301 $999,000 2,110 sq. ft. $473
2017-03-01 Condo Condo 5+ Stories 1170 Federal Hwy Fort Lauderdale, FL 33304 $215,000 1,491 sq. ft. $144
2017-03-01 Condo Condo 5+ Stories 3410 Galt Ocean Fort Lauderdale, FL 33308 $649,000 1,891 sq. ft. $343
2017-03-01 Condo Townhouse Fee Simple 857 16th Ter Fort Lauderdale, FL 33304 $675,000 2,265 sq. ft. $298
2017-03-01 Condo Condo 5+ Stories 3080 47th Ct Fort Lauderdale, FL 33308 $365,000 1,450 sq. ft. $252
2017-03-01 Condo Townhouse Fee Simple 3121 26th St Fort Lauderdale, FL 33305 $1,350,000 2,800 sq. ft. $482
2017-03-01 Condo Condo 1-4 Stories 3031 51st St Fort Lauderdale, FL 33308 $314,777 1,300 sq. ft. $242
2017-02-28 Condo Condo 1-4 Stories 6489 Bay Club Dr Fort Lauderdale, FL 33308 $139,995 850 sq. ft. $165
2017-02-28 Condo Co-Op 1-4 Stories 1790 Las Olas Blvd Fort Lauderdale, FL 33301 $214,000 1,150 sq. ft. $186
2017-02-28 Condo Condo 1-4 Stories 2713 15th St Fort Lauderdale, FL 33304 $389,000 1,300 sq. ft. $299
2017-02-28 Condo Condo 5+ Stories 2100 Ocean Lane Fort Lauderdale, FL 33316 $699,000 1,879 sq. ft. $372
2017-02-28 Condo Townhouse Fee Simple 1238 Las Olas Blvd Fort Lauderdale, FL 33312 $319,500 1,627 sq. ft. $196
2017-02-28 Condo Condo 5+ Stories 100 Federal Hwy Fort Lauderdale, FL 33301 $330,000
2017-02-28 Condo Condo 5+ Stories 2715 Ocean Blvd Fort Lauderdale, FL 33308 $389,000 1,200 sq. ft. $324
2017-02-28 Condo Condo 1-4 Stories 1200 12th St Fort Lauderdale, FL 33315 $219,000 1,020 sq. ft. $215
2017-02-28 Condo Condo 5+ Stories 600 Las Olas Blvd Fort Lauderdale, FL 33312 $449,990 1,348 sq. ft. $334
2017-02-27 Condo < 4 Floors; European; Mediterranean 70 Isle Of Venice Drive Fort Lauderdale, FL 33301 $425,000 1,330 sq. ft. $320
2017-02-27 Condo Mediterranean 70 Isle Of Venice Drive Fort Lauderdale, FL 33301 $630,000 1,794 sq. ft. $351
2017-02-27 Condo Condo 5+ Stories 2765 14th St Fort Lauderdale, FL 33304 $1,100,000 2,970 sq. ft. $370
2017-02-27 Condo Townhouse Fee Simple 2517 14th St Fort Lauderdale, FL 33304 $559,000 1,834 sq. ft. $305
2017-02-27 Condo Condo 1-4 Stories 611 14th Ave Fort Lauderdale, FL 33304 $199,900 820 sq. ft. $244
2017-02-27 Condo Co-Op 1-4 Stories 2065 56th Fort Lauderdale, FL 33308 $62,999 600 sq. ft. $105
2017-02-27 Condo Condo 1-4 Stories 3223 36th St Fort Lauderdale, FL 33308 $299,000 1,200 sq. ft. $249
2017-02-27 Condo Condo 5+ Stories 333 Las Olas Way Fort Lauderdale, FL 33301 $1,649,000 2,726 sq. ft. $605
2017-02-27 Condo Condo-Hotel 505 Ft Lauderdale Bch Bl Fort Lauderdale, FL 33304 $540,000 1,028 sq. ft. $525
2017-02-27 Condo Condo 5+ Stories 3400 Galt Ocean Dr Fort Lauderdale, FL 33308 $769,000 2,112 sq. ft. $364
2017-02-26 Condo Condo 5+ Stories 1800 Andrews Ave Fort Lauderdale, FL 33311 $219,000 1,050 sq. ft. $209
2017-02-26 Condo Co-Op 1-4 Stories Fort Lauderdale, FL $195,500 1,170 sq. ft. $167
2017-02-26 Condo Condo 5+ Stories 3200 Port Royale Dr Fort Lauderdale, FL 33308 $294,999 1,290 sq. ft. $229
2017-02-26 Condo Co-Op 5+ Stories 3300 36th St Fort Lauderdale, FL 33308 $169,000 1,120 sq. ft. $151
2017-02-26 Condo Co-Op 5+ Stories 347 New River Dr Fort Lauderdale, FL 33301 $689,000 1,204 sq. ft. $572
2017-02-26 Condo Condo 5+ Stories 505 Fort Lauderdale Beac Fort Lauderdale, FL 33304 $319,000 906 sq. ft. $352
2017-02-25 Condo Co-Op 1-4 Stories 2727 Yacht Club Blvd Fort Lauderdale, FL 33304 $299,000 1,030 sq. ft. $290
2017-02-25 Condo Condo 5+ Stories 313 2nd St Fort Lauderdale, FL 33301 $379,000 1,412 sq. ft. $268
2017-02-24 Condo Condo-Hotel 2670 Sunrise Blvd Fort Lauderdale, FL 33304 $197,000
2017-02-24 Condo Condo 5+ Stories 2110 Ocean Bl Fort Lauderdale, FL 33305 $1,550,000 2,623 sq. ft. $591
2017-02-24 Condo Condo 5+ Stories 1180 Federal Hy Fort Lauderdale, FL 33304 $748,000 1,538 sq. ft. $486
2017-02-24 Condo Condo 5+ Stories 1180 Federal Hwy Fort Lauderdale, FL 33304 $891,000 1,783 sq. ft. $500
2017-02-24 Condo Condo 5+ Stories 1180 Federal Hy Fort Lauderdale, FL 33304 $1,399,000 2,248 sq. ft. $622
2017-02-24 Condo Condo 5+ Stories 1180 Federal Hy Fort Lauderdale, FL 33304 $2,250,000 2,723 sq. ft. $826
2017-02-24 Condo Condo 5+ Stories 1180 Federal Hwy Fort Lauderdale, FL 33304 $5,250,000 8,788 sq. ft. $597
2017-02-24 Condo Co-Op 5+ Stories 3100 49th St Fort Lauderdale, FL 33308 $418,000 1,400 sq. ft. $299
2017-02-24 Condo 110 Federal Highway Fort Lauderdale, FL 33301 $424,500 1,369 sq. ft. $310
2017-02-24 Condo Co-Op 5+ Stories 511 5th Ave Fort Lauderdale, FL 33301 $600,000 1,692 sq. ft. $355
2017-02-24 Condo Condo 5+ Stories 5321 24th Ter Fort Lauderdale, FL 33308 $162,900 928 sq. ft. $176
2017-02-24 Condo Condo-Hotel 505 Ft Lauderdale Bch Bl Fort Lauderdale, FL 33304 $296,000 584 sq. ft. $507
2017-02-24 Condo Condo 5+ Stories 2001 Ocean Blvd Fort Lauderdale, FL 33305 $764,900 1,694 sq. ft. $452
2017-02-24 Condo Condo 5+ Stories 3020 32nd Ave Fort Lauderdale, FL 33308 $459,000 1,750 sq. ft. $262
2017-02-24 Condo Condo-Hotel 505 Ft Lauderdale Bch Bl Fort Lauderdale, FL 33304 $775,900 1,028 sq. ft. $755
2017-02-24 Condo Condo 5+ Stories 2200 33rd Ave Fort Lauderdale, FL 33305 $219,900 1,103 sq. ft. $199
2017-02-24 Condo Condo 5+ Stories 3020 32nd Ave Fort Lauderdale, FL 33308 $379,000 1,170 sq. ft. $324
2017-02-24 Condo Condo 5+ Stories 625 Antioch Ave Fort Lauderdale, FL 33304 $175,000 670 sq. ft. $261
2017-02-24 Condo Co-Op 1-4 Stories 2864 33rd Ct Fort Lauderdale, FL 33306 $339,000 1,107 sq. ft. $306
2017-02-24 Condo Condo 1-4 Stories 2210 67 Street Fort Lauderdale, FL 33308 $124,000 950 sq. ft. $131
2017-02-23 Condo Townhouse Fee Simple 822 16th St Fort Lauderdale, FL 33315 $550,000 $253
2017-02-23 Condo Condo-Hotel 505 Ft Lauderdale Bch Bl Fort Lauderdale, FL 33304 $695,000 1,308 sq. ft. $531
2017-02-23 Condo Co-Op 5+ Stories 1905 Ocean Blvd Fort Lauderdale, FL 33305 $599,000 1,500 sq. ft. $399
2017-02-23 Condo Condo 5+ Stories 3031 Ocean Blvd Fort Lauderdale, FL 33308 $225,000 1,031 sq. ft. $218
2017-02-23 Condo Condo 5+ Stories Fort Lauderdale, FL 33308 $399,990 1,200 sq. ft. $333
2017-02-23 Condo Condo 5+ Stories 3410 Galt Ocean Dr Fort Lauderdale, FL 33308 $750,000 2,112 sq. ft. $355
2017-02-23 Condo Condo 5+ Stories 4020 Galt Ocean Dr Fort Lauderdale, FL 33308 $322,900 1,356 sq. ft. $238
2017-02-22 Condo Condo 1-4 Stories 3909 Ocean Blvd Fort Lauderdale, FL 33308 $268,900 1,145 sq. ft. $235
2017-02-22 Condo Condo 1-4 Stories 1470 Dixie Hwy Fort Lauderdale, FL 33304 $169,900 813 sq. ft. $209
2017-02-22 Condo Condo 5+ Stories 2000 Ocean Dr Fort Lauderdale, FL 33316 $449,000 1,205 sq. ft. $373
2017-02-22 Condo Condo 5+ Stories 101 Fort Lauderdale Beac Fort Lauderdale, FL 33316 $3,949,000 4,320 sq. ft. $914
2017-02-22 Condo Condo 5+ Stories 110 Federal Hwy Fort Lauderdale, FL 33301 $499,000 1,558 sq. ft. $320
2017-02-22 Condo Townhouse Fee Simple 732 7th Ave Fort Lauderdale, FL 33304 $549,500 2,429 sq. ft. $226
2017-02-22 Condo Co-Op 5+ Stories 3233 34th St Fort Lauderdale, FL 33308 $349,900 1,340 sq. ft. $261
2017-02-22 Condo Co-Op 1-4 Stories 1850 Ocean Dr Fort Lauderdale, FL 33316 $229,000
2017-02-22 Condo Townhouse Condo 1033 17th Way Fort Lauderdale, FL 33304 $330,000 1,780 sq. ft. $185
2017-02-22 Condo Condo 5+ Stories 3400 Galt Ocean Drive Fort Lauderdale, FL 33308 $649,500 1,891 sq. ft. $343
2017-02-22 Condo Condo 5+ Stories 2200 33rd Ave Fort Lauderdale, FL 33305 $439,000 1,425 sq. ft. $308
2017-02-22 Condo Co-Op 5+ Stories 1920 Ocean Dr Fort Lauderdale, FL 33316 $149,900 532 sq. ft. $282
2017-02-21 Condo Townhouse Condo 2626 11th Ct Fort Lauderdale, FL 33304 $618,000 2,402 sq. ft. $257
2017-02-21 Condo Condo 5+ Stories 5100 Dupont Blvd Fort Lauderdale, FL 33308 $495,000
2017-02-21 Condo Townhouse Fee Simple 1445 4th Ave Fort Lauderdale, FL 33315 $488,800 2,470 sq. ft. $198
2017-02-21 Condo Co-Op 5+ Stories 3333 34th St Fort Lauderdale, FL 33308 $179,999 800 sq. ft. $225
2017-02-21 Condo Townhouse Fee Simple 1222 18th Ave Fort Lauderdale, FL 33304 $419,000 1,932 sq. ft. $217
2017-02-21 Condo Condo 5+ Stories 720 Bayshore Dr Fort Lauderdale, FL 33304 $299,999
2017-02-21 Condo Condo 5+ Stories 2500 Las Olas Blvd Fort Lauderdale, FL 33301 $547,900 1,940 sq. ft. $282
2017-02-21 Condo Townhouse Fee Simple 719 4th Ave Fort Lauderdale, FL 33315 $399,000 1,853 sq. ft. $215
2017-02-20 Condo Co-Op 1-4 Stories 2124 56th Ct Fort Lauderdale, FL 33308 $78,000 600 sq. ft. $130
2017-02-20 Condo Condo 5+ Stories 209 Birch Rd Fort Lauderdale, FL 33304 $2,195,000 3,910 sq. ft. $561
2017-02-20 Condo Condo 5+ Stories 100 Federal Hwy Fort Lauderdale, FL 33301 $430,000 1,228 sq. ft. $350
2017-02-20 Condo Condo 5+ Stories 4020 Galt Ocean Dr Fort Lauderdale, FL 33308 $429,999 1,514 sq. ft. $284
2017-02-20 Condo Townhouse Fee Simple 634 13th Ave Fort Lauderdale, FL 33304 $499,000 2,046 sq. ft. $244
2017-02-20 Condo Condo 5+ Stories 111 8th Ave Fort Lauderdale, FL 33301 $569,000 1,480 sq. ft. $384
2017-02-20 Condo Condo 1-4 Stories 3223 36 St Fort Lauderdale, FL 33308 $299,000 1,200 sq. ft. $249
2017-02-20 Condo Condo 5+ Stories 2300 33rd Ave Fort Lauderdale, FL 33305 $479,000 1,316 sq. ft. $364
2017-02-20 Condo Condo 5+ Stories 3410 Galt Ocean Dr Fort Lauderdale, FL 33308 $449,000 1,662 sq. ft. $270
2017-02-20 Condo Condo 5+ Stories 3200 Port Royale Dr Fort Lauderdale, FL 33308 $295,000 1,290 sq. ft. $229
2017-02-20 Condo Co-Op 1-4 Stories 2866 30th St Fort Lauderdale, FL 33306 $284,900 931 sq. ft. $306
2017-02-20 Condo Condo 5+ Stories 3050 47 Court Fort Lauderdale, FL 33308 $375,000 1,781 sq. ft. $211
2017-02-20 Condo Townhouse Fee Simple 1119 Victoria Park Rd Fort Lauderdale, FL 33304 $479,000 1,782 sq. ft. $269
2017-02-20 Condo Condo 5+ Stories 110 Hendricks Isle Fort Lauderdale, FL 33301 $899,000 2,645 sq. ft. $340
2017-02-19 Condo Co-Op 1-4 Stories 3025 Harbor Dr Fort Lauderdale, FL 33316 $315,000 750 sq. ft. $420
2017-02-19 Condo Townhouse Fee Simple 1850 26th Ave Fort Lauderdale, FL 33305 $1,599,000 4,151 sq. ft. $385
2017-02-19 Condo Condo 1-4 Stories 1400 57th St Fort Lauderdale, FL 33334 $114,900 704 sq. ft. $163
2017-02-19 Condo Condo 5+ Stories 1151 Fort Lauderdale Beac Fort Lauderdale, FL 33304 $890,000 1,700 sq. ft. $524
2017-02-18 Condo Condo 5+ Stories 4020 Galt Ocean Dr Fort Lauderdale, FL 33308 $405,000 1,514 sq. ft. $268
2017-02-18 Condo Condo 1-4 Stories 2715 49th St Fort Lauderdale, FL 33308 $239,000 915 sq. ft. $261
2017-02-18 Condo Condo 1-4 Stories 2161 68th St Fort Lauderdale, FL 33308 $119,900 950 sq. ft. $126
2017-02-18 Condo Co-Op 5+ Stories 1920 Ocean Dr Fort Lauderdale, FL 33316 $145,000 805 sq. ft. $180
2017-02-18 Condo 40 Hendricks Isle(S) Fort Lauderdale, FL 33301 $1,095,000 2,253 sq. ft. $486
2017-02-18 Condo 1750 3rd Ter Fort Lauderdale, FL 33311 $159,900 975 sq. ft. $164
2017-02-17 Condo Condo 1-4 Stories 924 2nd St Fort Lauderdale, FL 33301 $215,000 890 sq. ft. $242
2017-02-17 Condo Co-Op 5+ Stories 1920 Ocean Dr Fort Lauderdale, FL 33316 $174,900 805 sq. ft. $217
2017-02-17 Condo Condo 5+ Stories 347 New River Dr E Fort Lauderdale, FL 33301 $660,000 1,204 sq. ft. $548
2017-02-17 Condo Co-Op 1-4 Stories 1750 Ocean Ln Fort Lauderdale, FL 33316 $269,000 699 sq. ft. $385
2017-02-17 Condo Condo 5+ Stories 2500 Las Olas Blvd Fort Lauderdale, FL 33301 $499,000 1,230 sq. ft. $406
2017-02-17 Condo Condo 5+ Stories 347 New River Dr E Fort Lauderdale, FL 33301 $665,000 1,204 sq. ft. $552
2017-02-17 Condo Courtyard; Townhouse 1616 5th Street Fort Lauderdale, FL 33301 $429,900 1,376 sq. ft. 3,049 sq. ft. $312
2017-02-16 Condo 1785 Andrews Square Fort Lauderdale, FL 33311 $148,900 975 sq. ft. $153
2017-02-16 Condo Townhouse Fee Simple 1819 Coral Ridge Dr Fort Lauderdale, FL 33305 $489,000 1,658 sq. ft. $295
2017-02-16 Condo Condo 5+ Stories 100 Las Olas Boulevard Fort Lauderdale, FL 33301 $1,260,000 2,395 sq. ft. $526
2017-02-16 Condo 4+ Floors; Contemporary 3400 Galt Ocean Drive Fort Lauderdale, FL 33308 $799,000 2,112 sq. ft. $378
2017-02-16 Condo 4+ Floors 345 Fort Lauderdale Beach Boulevard Fort Lauderdale, FL 33304 $535,000 811 sq. ft. $660
2017-02-16 Condo Multi-Level 3015 Ocean Boulevard Fort Lauderdale, FL 33308 $419,900 1,350 sq. ft. $311
2017-02-16 Condo Condo 5+ Stories 101 Fort Lauderdale Beac Fort Lauderdale, FL 33316 $2,590,000 2,958 sq. ft. $876
2017-02-16 Condo Condo 5+ Stories 100 Birch Rd Fort Lauderdale, FL 33316 $750,000 1,722 sq. ft. $436
2017-02-16 Condo Condo 5+ Stories 4010 Galt Ocean Dr Fort Lauderdale, FL 33308 $255,900 940 sq. ft. $272
2017-02-15 Condo Condo 5+ Stories 45 Hendricks Isle Fort Lauderdale, FL 33301 $2,700,000 4,300 sq. ft. $628
2017-02-15 Condo Condo 5+ Stories Fort Lauderdale, FL 33308 $575,000 1,400 sq. ft. $411
2017-02-15 Condo Townhouse Fee Simple 413 Hendricks Isle Fort Lauderdale, FL 33301 $1,550,000 3,128 sq. ft. $496
2017-02-15 Condo Condo 5+ Stories 1350 River Reach Dr Fort Lauderdale, FL 33315 $224,900 1,110 sq. ft. $203
2017-02-15 Condo Condo 5+ Stories 110 Federal Hwy Fort Lauderdale, FL 33301 $375,000 1,211 sq. ft. $310
2017-02-15 Condo Co-Op 5+ Stories 3200 36th St Fort Lauderdale, FL 33308 $229,900
2017-02-15 Condo Condo 1-4 Stories 3051 47th Ct Fort Lauderdale, FL 33308 $259,000 1,210 sq. ft. $214
2017-02-15 Condo Condo 1-4 Stories 2841 33rd Ct Fort Lauderdale, FL 33306 $235,000 960 sq. ft. $245
2017-02-15 Condo Condo 5+ Stories 4300 Ocean Blvd Fort Lauderdale, FL 33308 $649,000 1,450 sq. ft. $448
2017-02-15 Condo Condo 5+ Stories 2900 30th St Fort Lauderdale, FL 33306 $285,000 1,040 sq. ft. $274
2017-02-15 Condo Condo 5+ Stories 2900 30th St Fort Lauderdale, FL 33306 $147,000 440 sq. ft. $334
2017-02-15 Condo Condo 1-4 Stories 1220 3rd St Fort Lauderdale, FL 33301 $191,000 630 sq. ft. $303
2017-02-14 Condo Condo 5+ Stories 600 Las Olas Bl Fort Lauderdale, FL 33312 $535,000 1,224 sq. ft. $437
2017-02-14 Condo Condo 5+ Stories 1819 17th St Fort Lauderdale, FL 33316 $538,000 1,565 sq. ft. $344
2017-02-14 Condo Townhouse Fee Simple 825 17th Ter Fort Lauderdale, FL 33304 $625,000
2017-02-14 Condo Condo 5+ Stories 610 Las Olas Bl Fort Lauderdale, FL 33312 $325,000 1,000 sq. ft. $325
2017-02-14 Condo Condo 5+ Stories 3100 48th St Fort Lauderdale, FL 33308 $799,000 1,891 sq. ft. $423
2017-02-13 Condo Condo 5+ Stories 1819 17th St Fort Lauderdale, FL 33316 $396,000 1,384 sq. ft. $286
2017-02-13 Condo Condo 5+ Stories 3750 Galt Ocean Dr Fort Lauderdale, FL 33308 $650,000 1,787 sq. ft. $364
2017-02-13 Condo Condo 5+ Stories 110 Federal Hwy Fort Lauderdale, FL 33301 $240,000 780 sq. ft. $308
2017-02-13 Condo Condo 1-4 Stories 3050 48th St Fort Lauderdale, FL 33308 $204,000 950 sq. ft. $215
2017-02-13 Condo Co-Op 1-4 Stories 1750 Ocean Ln Fort Lauderdale, FL 33316 $310,000 1,002 sq. ft. $309
2017-02-13 Condo Condo 5+ Stories 321 N Birch Road Fort Lauderdale, FL 33304 $1,950,000 2,805 sq. ft. $695
2017-02-13 Condo Condo 5+ Stories 336 Birch Rd Fort Lauderdale, FL 33304 $305,000 819 sq. ft. $372
2017-02-13 Condo Condo 5+ Stories 321 Birch Road Fort Lauderdale, FL 33304 $1,950,000 2,805 sq. ft. $695
2017-02-13 Condo Condo 1-4 Stories 2857 32 St Fort Lauderdale, FL 33306 $259,900 788 sq. ft. $330
2017-02-11 Condo Villa Fee Simple 6150 31st Ter Fort Lauderdale, FL 33309 $197,500 1,440 sq. ft. $137
2017-02-11 Condo Condo 5+ Stories 101 Birch Rd Fort Lauderdale, FL 33304 $323,000 831 sq. ft. $389
2017-02-11 Condo Condo 1-4 Stories 3001 47th Ct Fort Lauderdale, FL 33308 $279,900 1,285 sq. ft. $218
2017-02-11 Condo Townhouse Fee Simple 2806 30th St Fort Lauderdale, FL 33306 $825,000 2,870 sq. ft. $287
2017-02-11 Condo Townhouse Fee Simple 804 7th St Fort Lauderdale, FL 33304 $719,000 2,850 sq. ft. $252
2017-02-11 Condo Condo 5+ Stories 3900 Galt Ocean Dr Fort Lauderdale, FL 33308 $375,000 1,088 sq. ft. $345
2017-02-11 Condo Condo 5+ Stories 1617 15th St Fort Lauderdale, FL 33316 $325,000 1,279 sq. ft. $254
2017-02-10 Condo Condo 1-4 Stories 3121 51st St Fort Lauderdale, FL 33308 $329,000 1,300 sq. ft. $253
2017-02-10 Condo Townhouse Fee Simple 2612 11th Ct Fort Lauderdale, FL 33304 $640,000 2,621 sq. ft. $244
2017-02-10 Condo Condo 5+ Stories 100 Las Olas Boulevard Fort Lauderdale, FL 33301 $1,570,000
2017-02-10 Condo Condo 5+ Stories 545 Fort Lauderdale Beac Fort Lauderdale, FL 33316 $489,000 913 sq. ft. $536
2017-02-10 Condo Townhouse Fee Simple 1638 33rd Ct Fort Lauderdale, FL 33315 $329,900 1,794 sq. ft. $184
2017-02-10 Condo Condo 5+ Stories 3500 Galt Ocean Dr Fort Lauderdale, FL 33308 $425,000 1,435 sq. ft. $296
2017-02-10 Condo Townhouse Fee Simple 1241 1st Ave Fort Lauderdale, FL 33311 $449,000 2,482 sq. ft. $181
2017-02-10 Condo Condo 5+ Stories 411 New River Dr Fort Lauderdale, FL 33301 $829,000 1,630 sq. ft. $509
2017-02-10 Condo Condo 5+ Stories 200 Birch Rd Fort Lauderdale, FL 33316 $215,000
2017-02-09 Condo Condo 5+ Stories 5321 24th Ter Fort Lauderdale, FL 33308 $129,000 928 sq. ft. $139
2017-02-09 Condo Condo 1-4 Stories 3090 48th St Fort Lauderdale, FL 33308 $459,000 2,100 sq. ft. $219
2017-02-09 Condo Condo 5+ Stories Fort Lauderdale, FL 33316 $525,000 1,365 sq. ft. $385
2017-02-09 Condo Condo 5+ Stories 110 Federal Hwy Fort Lauderdale, FL 33301 $399,900 1,216 sq. ft. $329
2017-02-09 Condo Townhouse Condo 4923 Windward Wy Fort Lauderdale, FL 33312 $229,900 1,382 sq. ft. $166
2017-02-09 Condo Condo 5+ Stories 520 5th Ave Fort Lauderdale, FL 33301 $275,000 1,447 sq. ft. $190
2017-02-09 Condo Townhouse Condo 4943 Windward Way Fort Lauderdale, FL 33312 $259,000 1,616 sq. ft. $160
2017-02-09 Condo Condo 5+ Stories 347 New River Dr Fort Lauderdale, FL 33301 $359,000 820 sq. ft. $438
2017-02-08 Condo Condo 1-4 Stories 1475 15th St Fort Lauderdale, FL 33316 $140,000 650 sq. ft. $215
2017-02-08 Condo Townhouse Fee Simple 617 11th Ave Fort Lauderdale, FL 33304 $565,000 2,307 sq. ft. $245
2017-02-08 Condo Condo 5+ Stories 5100 Dupont Blvd Fort Lauderdale, FL 33308 $194,999 706 sq. ft. $276
2017-02-08 Condo Condo 1-4 Stories 1750 3rd Ter Fort Lauderdale, FL 33311 $104,999 975 sq. ft. $108
2017-02-08 Condo Condo 5+ Stories 2900 Banyan St Fort Lauderdale, FL 33316 $260,000 690 sq. ft. $377
2017-02-08 Condo Condo 1-4 Stories 4501 21st Ave Fort Lauderdale, FL 33308 $124,900 735 sq. ft. $170
2017-02-08 Condo Condo 1-4 Stories 3110 29th St Fort Lauderdale, FL 33308 $539,000 1,050 sq. ft. $513
2017-02-08 Condo Co-Op 5+ Stories 3300 36th St Fort Lauderdale, FL 33308 $179,000 800 sq. ft. $224
2017-02-08 Condo Villa Condo 5201 31st Ave Fort Lauderdale, FL 33312 $249,000 1,339 sq. ft. $186
2017-02-07 Condo Condo 5+ Stories 3233 32nd Ave Fort Lauderdale, FL 33308 $269,000 1,400 sq. ft. $192
2017-02-07 Condo Condo 5+ Stories 3550 Galt Ocean Dr Fort Lauderdale, FL 33308 $450,000 1,575 sq. ft. $286
2017-02-07 Condo Condo 5+ Stories 333 Las Olas Way Fort Lauderdale, FL 33301 $1,947,000 3,223 sq. ft. $604
2017-02-07 Condo Condo 5+ Stories 2200 Ocean Ln Fort Lauderdale, FL 33316 $795,000 2,022 sq. ft. $393
2017-02-07 Condo Co-Op 1-4 Stories 2866 30th St Fort Lauderdale, FL 33306 $299,000 931 sq. ft. $321
2017-02-07 Condo Condo 5+ Stories 1151 Ft Laud Beach Blvd Fort Lauderdale, FL 33304 $699,900 1,700 sq. ft. $412
2017-02-07 Condo Condo 5+ Stories 100 Las Olas Boulevard Fort Lauderdale, FL 33301 $1,050,000 1,867 sq. ft. $562
2017-02-07 Condo Condo 1-4 Stories 2151 68 St Fort Lauderdale, FL 33308 $139,500 1,100 sq. ft. $127
2017-02-07 Condo Condo 1-4 Stories 744 14th Ave Fort Lauderdale, FL 33304 $179,000 710 sq. ft. $252
2017-02-07 Condo Condo 5+ Stories 610 Las Olas Blvd Fort Lauderdale, FL 33312 $459,000 1,180 sq. ft. $389
2017-02-07 Condo Condo 5+ Stories 2100 Ocean Ln Fort Lauderdale, FL 33316 $499,000 1,435 sq. ft. $348
2017-02-07 Condo Condo 5+ Stories 3000 Holiday Dr Fort Lauderdale, FL 33316 $625,000 1,609 sq. ft. $388
2017-02-06 Condo Condo 1-4 Stories 1475 15th St Fort Lauderdale, FL 33316 $149,000 570 sq. ft. $261
2017-02-06 Condo Condo 5+ Stories 3101 Bayshore Dr Fort Lauderdale, FL 33304 $1,300,000 1,402 sq. ft. $927
2017-02-06 Condo Condo 5+ Stories 3101 Bayshore Dr Fort Lauderdale, FL 33304 $1,125,000 1,283 sq. ft. $877
2017-02-06 Condo Condo 5+ Stories 3101 Bayshore Dr Fort Lauderdale, FL 33304 $650,000 804 sq. ft. $808
2017-02-06 Condo Condo 5+ Stories 2110 Ocean Bl Fort Lauderdale, FL 33305 $449,500 741 sq. ft. $607
2017-02-06 Condo Condo-Hotel 505 Ft Lauderdale Bch Bl Fort Lauderdale, FL 33304 $274,000 451 sq. ft. $608
2017-02-06 Condo Condo 5+ Stories 20 Isle Of Venice Fort Lauderdale, FL 33301 $1,595,000 2,590 sq. ft. $616
2017-02-06 Condo Condo 1-4 Stories 2881 33rd Ct Fort Lauderdale, FL 33306 $265,000 1,250 sq. ft. $212
2017-02-06 Condo Condo/Timeshare 1600 15th St Fort Lauderdale, FL 33316 $269,000 1,020 sq. ft. $264
2017-02-06 Condo Condo 5+ Stories 5100 Dupont Blvd Fort Lauderdale, FL 33308 $175,000 924 sq. ft. $189
2017-02-06 Condo Condo 5+ Stories 347 New River Dr Fort Lauderdale, FL 33301 $449,000 1,080 sq. ft. $416
2017-02-06 Condo Townhouse Fee Simple 5007 Neptune Ln Fort Lauderdale, FL 33312 $239,000 1,391 sq. ft. $172
2017-02-06 Condo Condo 5+ Stories 3900 Galt Ocean Dr Fort Lauderdale, FL 33308 $410,000 1,435 sq. ft. $286
2017-02-06 Condo Condo 5+ Stories 511 5 Avenue Fort Lauderdale, FL 33301 $347,777 1,379 sq. ft. $252
2017-02-06 Condo Condo 5+ Stories 100 Birch Rd Fort Lauderdale, FL 33316 $719,000 1,722 sq. ft. $418